VLG51GH LEBB-EGKK
Flight info
| Callsign | VLG51GH |
|---|---|
| Flight time | 1h 17m |
| Altitude | 34000 |
| Route | BISKA P87 BELEN DCT DIDIG UP87 REVTU UP88 VASUX |
| Aircraft | A320/M-SDE3FGHIRWY/LB1 |
Departure
| Time | 2026-05-07 08:36 |
|---|---|
| Airport | Bilbao Airport (LEBB) |
Arrival
| Time | 2026-05-07 09:53 |
|---|---|
| Airport | London Gatwick Airport (EGKK) |
| Time | Latitude | Longitude | Altitude | Speed | Heading |
|---|---|---|---|---|---|
| 2026-05-07 08:04 | 43.30446 | -2.90684 | 133 ft | 0 kts | 26° |
| 2026-05-07 08:26 | 43.30419 | -2.90706 | 132 ft | 4 kts | 38° |
| 2026-05-07 08:26 | 43.30400 | -2.90731 | 132 ft | 4 kts | 62° |
| 2026-05-07 08:26 | 43.30396 | -2.90760 | 132 ft | 2 kts | 116° |
| 2026-05-07 08:27 | 43.30399 | -2.90767 | 132 ft | 0 kts | 116° |
| 2026-05-07 08:30 | 43.30393 | -2.90752 | 132 ft | 3 kts | 117° |
| 2026-05-07 08:30 | 43.30380 | -2.90717 | 132 ft | 5 kts | 117° |
| 2026-05-07 08:30 | 43.30358 | -2.90658 | 132 ft | 9 kts | 117° |
| 2026-05-07 08:31 | 43.30322 | -2.90593 | 132 ft | 10 kts | 141° |
| 2026-05-07 08:31 | 43.30260 | -2.90536 | 132 ft | 9 kts | 146° |
| 2026-05-07 08:31 | 43.30199 | -2.90542 | 132 ft | 11 kts | 209° |
| 2026-05-07 08:31 | 43.30144 | -2.90580 | 132 ft | 9 kts | 189° |
| 2026-05-07 08:32 | 43.30101 | -2.90517 | 132 ft | 11 kts | 117° |
| 2026-05-07 08:32 | 43.30058 | -2.90420 | 132 ft | 13 kts | 121° |
| 2026-05-07 08:32 | 43.30014 | -2.90298 | 132 ft | 15 kts | 115° |
| 2026-05-07 08:32 | 43.29964 | -2.90156 | 132 ft | 18 kts | 116° |
| 2026-05-07 08:33 | 43.29906 | -2.89997 | 132 ft | 20 kts | 117° |
| 2026-05-07 08:33 | 43.29842 | -2.89821 | 132 ft | 22 kts | 117° |
| 2026-05-07 08:33 | 43.29796 | -2.89695 | 132 ft | 14 kts | 117° |
| 2026-05-07 08:33 | 43.29761 | -2.89604 | 132 ft | 5 kts | 125° |
| 2026-05-07 08:34 | 43.29719 | -2.89590 | 132 ft | 7 kts | 195° |
| 2026-05-07 08:34 | 43.29678 | -2.89644 | 132 ft | 9 kts | 230° |
| 2026-05-07 08:34 | 43.29643 | -2.89728 | 123 ft | 13 kts | 258° |
| 2026-05-07 08:34 | 43.29667 | -2.89849 | 125 ft | 10 kts | 296° |
| 2026-05-07 08:35 | 43.29669 | -2.89855 | 126 ft | 0 kts | 296° |
| 2026-05-07 08:35 | 43.29763 | -2.90113 | 125 ft | 67 kts | 296° |
| 2026-05-07 08:35 | 43.30075 | -2.90955 | 125 ft | 127 kts | 296° |
| 2026-05-07 08:35 | 43.30557 | -2.92219 | 201 ft | 166 kts | 298° |
| 2026-05-07 08:36 | 43.31093 | -2.93620 | 801 ft | 166 kts | 298° |
| 2026-05-07 08:36 | 43.31617 | -2.95038 | 1448 ft | 167 kts | 297° |
| 2026-05-07 08:36 | 43.32142 | -2.96490 | 1890 ft | 178 kts | 296° |
| 2026-05-07 08:36 | 43.32841 | -2.98026 | 2108 ft | 203 kts | 311° |
| 2026-05-07 08:37 | 43.33904 | -2.99434 | 2536 ft | 222 kts | 319° |
| 2026-05-07 08:37 | 43.35128 | -3.00860 | 3032 ft | 241 kts | 320° |
| 2026-05-07 08:37 | 43.36461 | -3.02413 | 3544 ft | 261 kts | 319° |
| 2026-05-07 08:37 | 43.37973 | -3.03881 | 4229 ft | 273 kts | 339° |
| 2026-05-07 08:38 | 43.39858 | -3.04298 | 5048 ft | 278 kts | 2° |
| 2026-05-07 08:38 | 43.41739 | -3.03702 | 5930 ft | 281 kts | 26° |
| 2026-05-07 08:38 | 43.43461 | -3.02409 | 6766 ft | 283 kts | 30° |
| 2026-05-07 08:38 | 43.45200 | -3.01091 | 7568 ft | 287 kts | 29° |
| 2026-05-07 08:39 | 43.46970 | -2.99765 | 8361 ft | 292 kts | 29° |
| 2026-05-07 08:39 | 43.48774 | -2.98420 | 9151 ft | 297 kts | 28° |
| 2026-05-07 08:39 | 43.50612 | -2.97050 | 9888 ft | 303 kts | 28° |
| 2026-05-07 08:39 | 43.52493 | -2.95646 | 10390 ft | 317 kts | 28° |
| 2026-05-07 08:40 | 43.54499 | -2.94144 | 10595 ft | 340 kts | 28° |
| 2026-05-07 08:40 | 43.56618 | -2.92554 | 11022 ft | 351 kts | 28° |
| 2026-05-07 08:40 | 43.58777 | -2.90929 | 11684 ft | 355 kts | 28° |
| 2026-05-07 08:40 | 43.60955 | -2.89285 | 12362 ft | 359 kts | 28° |
| 2026-05-07 08:41 | 43.63157 | -2.87619 | 13023 ft | 363 kts | 28° |
| 2026-05-07 08:41 | 43.65384 | -2.85933 | 13689 ft | 367 kts | 28° |
| 2026-05-07 08:41 | 43.67631 | -2.84228 | 14299 ft | 370 kts | 28° |
| 2026-05-07 08:41 | 43.69893 | -2.82511 | 14878 ft | 373 kts | 28° |
| 2026-05-07 08:42 | 43.71404 | -2.81363 | 15267 ft | 375 kts | 28° |
| 2026-05-07 08:42 | 43.73765 | -2.79794 | 15833 ft | 378 kts | 20° |
| 2026-05-07 08:42 | 43.76301 | -2.78793 | 16387 ft | 381 kts | 12° |
| 2026-05-07 08:42 | 43.78896 | -2.77962 | 16966 ft | 384 kts | 12° |
| 2026-05-07 08:43 | 43.81512 | -2.77116 | 17517 ft | 388 kts | 13° |
| 2026-05-07 08:43 | 43.84150 | -2.76254 | 18105 ft | 391 kts | 13° |
| 2026-05-07 08:43 | 43.86805 | -2.75381 | 18639 ft | 394 kts | 13° |
| 2026-05-07 08:43 | 43.89486 | -2.74499 | 19157 ft | 397 kts | 13° |
| 2026-05-07 08:44 | 43.92186 | -2.73634 | 19679 ft | 400 kts | 12° |
| 2026-05-07 08:44 | 43.94927 | -2.72904 | 20184 ft | 403 kts | 9° |
| 2026-05-07 08:44 | 43.97703 | -2.72288 | 20702 ft | 405 kts | 8° |
| 2026-05-07 08:44 | 44.00502 | -2.71727 | 21188 ft | 408 kts | 7° |
| 2026-05-07 08:45 | 44.03312 | -2.71176 | 21698 ft | 409 kts | 7° |
| 2026-05-07 08:45 | 44.06142 | -2.70607 | 22181 ft | 412 kts | 7° |
| 2026-05-07 08:45 | 44.08986 | -2.70006 | 22646 ft | 415 kts | 8° |
| 2026-05-07 08:45 | 44.11844 | -2.69378 | 23111 ft | 417 kts | 8° |
| 2026-05-07 08:46 | 44.14719 | -2.68732 | 23562 ft | 420 kts | 8° |
| 2026-05-07 08:46 | 44.17615 | -2.68078 | 23943 ft | 423 kts | 8° |
| 2026-05-07 08:46 | 44.20531 | -2.67424 | 24322 ft | 425 kts | 8° |
| 2026-05-07 08:46 | 44.23460 | -2.66771 | 24690 ft | 428 kts | 8° |
| 2026-05-07 08:47 | 44.26410 | -2.66115 | 25059 ft | 430 kts | 8° |
| 2026-05-07 08:47 | 44.29373 | -2.65452 | 25418 ft | 433 kts | 8° |
| 2026-05-07 08:47 | 44.32356 | -2.64781 | 25785 ft | 435 kts | 8° |
| 2026-05-07 08:47 | 44.35356 | -2.64103 | 26157 ft | 438 kts | 8° |
| 2026-05-07 08:48 | 44.38370 | -2.63424 | 26515 ft | 440 kts | 8° |
| 2026-05-07 08:48 | 44.41400 | -2.62743 | 26878 ft | 442 kts | 8° |
| 2026-05-07 08:48 | 44.44449 | -2.62060 | 27234 ft | 445 kts | 8° |
| 2026-05-07 08:48 | 44.47510 | -2.61380 | 27581 ft | 447 kts | 8° |
| 2026-05-07 08:49 | 44.50588 | -2.60696 | 27946 ft | 449 kts | 8° |
| 2026-05-07 08:49 | 44.53686 | -2.60008 | 28306 ft | 452 kts | 8° |
| 2026-05-07 08:49 | 44.56756 | -2.59324 | 28651 ft | 454 kts | 8° |
| 2026-05-07 08:49 | 44.59880 | -2.58625 | 29005 ft | 456 kts | 8° |
| 2026-05-07 08:50 | 44.63023 | -2.57917 | 29356 ft | 458 kts | 8° |
| 2026-05-07 08:50 | 44.66180 | -2.57198 | 29692 ft | 461 kts | 8° |
| 2026-05-07 08:50 | 44.69349 | -2.56475 | 30074 ft | 462 kts | 8° |
| 2026-05-07 08:50 | 44.72519 | -2.55750 | 30477 ft | 461 kts | 8° |
| 2026-05-07 08:51 | 44.75690 | -2.55031 | 30878 ft | 460 kts | 8° |
| 2026-05-07 08:51 | 44.78852 | -2.54317 | 31270 ft | 460 kts | 8° |
| 2026-05-07 08:51 | 44.82015 | -2.53605 | 31663 ft | 460 kts | 8° |
| 2026-05-07 08:51 | 44.85174 | -2.52894 | 32055 ft | 460 kts | 8° |
| 2026-05-07 08:52 | 44.88334 | -2.52178 | 32452 ft | 460 kts | 8° |
| 2026-05-07 08:52 | 44.91496 | -2.51457 | 32845 ft | 460 kts | 7° |
| 2026-05-07 08:52 | 44.94653 | -2.50738 | 33239 ft | 460 kts | 7° |
| 2026-05-07 08:52 | 44.97809 | -2.50017 | 33643 ft | 459 kts | 7° |
| 2026-05-07 08:53 | 45.00965 | -2.49293 | 33965 ft | 460 kts | 7° |
| 2026-05-07 08:53 | 45.04130 | -2.48565 | 34026 ft | 462 kts | 7° |
| 2026-05-07 08:53 | 45.10495 | -2.47113 | 34024 ft | 464 kts | 7° |
| 2026-05-07 08:54 | 45.16861 | -2.45651 | 34034 ft | 464 kts | 7° |
| 2026-05-07 08:54 | 45.23178 | -2.44192 | 34027 ft | 463 kts | 7° |
| 2026-05-07 08:55 | 45.29535 | -2.42722 | 34026 ft | 463 kts | 7° |
| 2026-05-07 08:55 | 45.35891 | -2.41245 | 34032 ft | 463 kts | 7° |
| 2026-05-07 08:56 | 45.42254 | -2.39780 | 34045 ft | 463 kts | 7° |
| 2026-05-07 08:56 | 45.48614 | -2.38306 | 34046 ft | 463 kts | 7° |
| 2026-05-07 08:57 | 45.54980 | -2.36822 | 34046 ft | 463 kts | 8° |
| 2026-05-07 08:57 | 45.61332 | -2.35323 | 34053 ft | 462 kts | 8° |
| 2026-05-07 08:58 | 45.67673 | -2.33838 | 34047 ft | 461 kts | 7° |
| 2026-05-07 08:58 | 45.74004 | -2.32361 | 34048 ft | 461 kts | 7° |
| 2026-05-07 08:59 | 45.80327 | -2.30878 | 34053 ft | 460 kts | 7° |
| 2026-05-07 08:59 | 45.86631 | -2.29399 | 34051 ft | 459 kts | 7° |
| 2026-05-07 09:00 | 45.92927 | -2.27910 | 34050 ft | 458 kts | 7° |
| 2026-05-07 09:00 | 45.99176 | -2.26424 | 34057 ft | 458 kts | 8° |
| 2026-05-07 09:01 | 46.05460 | -2.24931 | 34051 ft | 457 kts | 8° |
| 2026-05-07 09:01 | 46.11736 | -2.23421 | 34050 ft | 457 kts | 8° |
| 2026-05-07 09:02 | 46.18005 | -2.21889 | 34058 ft | 457 kts | 8° |
| 2026-05-07 09:02 | 46.24266 | -2.20353 | 34055 ft | 456 kts | 8° |
| 2026-05-07 09:03 | 46.30518 | -2.18824 | 34052 ft | 455 kts | 8° |
| 2026-05-07 09:03 | 46.36766 | -2.17295 | 34059 ft | 455 kts | 8° |
| 2026-05-07 09:04 | 46.43006 | -2.15756 | 34055 ft | 455 kts | 8° |
| 2026-05-07 09:04 | 46.49245 | -2.14216 | 34052 ft | 455 kts | 8° |
| 2026-05-07 09:05 | 46.55480 | -2.12673 | 34058 ft | 454 kts | 8° |
| 2026-05-07 09:05 | 46.61710 | -2.11135 | 34055 ft | 454 kts | 8° |
| 2026-05-07 09:06 | 46.67939 | -2.09596 | 34049 ft | 454 kts | 8° |
| 2026-05-07 09:06 | 46.74160 | -2.08036 | 34047 ft | 453 kts | 8° |
| 2026-05-07 09:07 | 46.80377 | -2.06475 | 34042 ft | 453 kts | 8° |
| 2026-05-07 09:07 | 46.86588 | -2.04928 | 34041 ft | 453 kts | 8° |
| 2026-05-07 09:08 | 46.92801 | -2.03371 | 34036 ft | 453 kts | 8° |
| 2026-05-07 09:08 | 46.99009 | -2.01811 | 34046 ft | 453 kts | 8° |
| 2026-05-07 09:09 | 47.05216 | -2.00258 | 34048 ft | 452 kts | 8° |
| 2026-05-07 09:09 | 47.11373 | -1.98702 | 34047 ft | 452 kts | 8° |
| 2026-05-07 09:10 | 47.17567 | -1.97139 | 34054 ft | 452 kts | 8° |
| 2026-05-07 09:10 | 47.23756 | -1.95569 | 34052 ft | 451 kts | 8° |
| 2026-05-07 09:11 | 47.29936 | -1.93999 | 34049 ft | 450 kts | 8° |
| 2026-05-07 09:11 | 47.36111 | -1.92440 | 34046 ft | 450 kts | 8° |
| 2026-05-07 09:12 | 47.42279 | -1.90875 | 34051 ft | 449 kts | 8° |
| 2026-05-07 09:12 | 47.48437 | -1.89305 | 34050 ft | 449 kts | 8° |
| 2026-05-07 09:13 | 47.54596 | -1.87730 | 34050 ft | 449 kts | 8° |
| 2026-05-07 09:13 | 47.60752 | -1.86147 | 34057 ft | 449 kts | 8° |
| 2026-05-07 09:14 | 47.66902 | -1.84565 | 34060 ft | 449 kts | 8° |
| 2026-05-07 09:14 | 47.73056 | -1.82978 | 34060 ft | 449 kts | 8° |
| 2026-05-07 09:15 | 47.79206 | -1.81376 | 34070 ft | 449 kts | 8° |
| 2026-05-07 09:15 | 47.85356 | -1.79784 | 34074 ft | 449 kts | 8° |
| 2026-05-07 09:16 | 47.91507 | -1.78187 | 34077 ft | 448 kts | 8° |
| 2026-05-07 09:16 | 47.97652 | -1.76598 | 34077 ft | 448 kts | 8° |
| 2026-05-07 09:17 | 48.03638 | -1.75034 | 34077 ft | 448 kts | 8° |
| 2026-05-07 09:17 | 48.09820 | -1.74203 | 34077 ft | 446 kts | 359° |
| 2026-05-07 09:18 | 48.16025 | -1.74137 | 34075 ft | 446 kts | 359° |
| 2026-05-07 09:18 | 48.22229 | -1.74043 | 34082 ft | 446 kts | 359° |
| 2026-05-07 09:19 | 48.28432 | -1.73962 | 34080 ft | 445 kts | 359° |
| 2026-05-07 09:19 | 48.34630 | -1.73909 | 34078 ft | 445 kts | 359° |
| 2026-05-07 09:20 | 48.40779 | -1.73855 | 34078 ft | 445 kts | 359° |
| 2026-05-07 09:20 | 48.46967 | -1.73786 | 34080 ft | 444 kts | 359° |
| 2026-05-07 09:21 | 48.53148 | -1.73710 | 34077 ft | 444 kts | 359° |
| 2026-05-07 09:21 | 48.59322 | -1.73642 | 34074 ft | 443 kts | 359° |
| 2026-05-07 09:22 | 48.65492 | -1.73583 | 34079 ft | 443 kts | 359° |
| 2026-05-07 09:22 | 48.71655 | -1.73525 | 34076 ft | 443 kts | 359° |
| 2026-05-07 09:23 | 48.77813 | -1.73454 | 34074 ft | 442 kts | 359° |
| 2026-05-07 09:23 | 48.83966 | -1.73383 | 34072 ft | 442 kts | 359° |
| 2026-05-07 09:24 | 48.90118 | -1.73315 | 34073 ft | 442 kts | 359° |
| 2026-05-07 09:24 | 48.96271 | -1.73246 | 34072 ft | 442 kts | 359° |
| 2026-05-07 09:25 | 49.02429 | -1.73184 | 34074 ft | 443 kts | 359° |
| 2026-05-07 09:25 | 49.08587 | -1.73117 | 34084 ft | 442 kts | 359° |
| 2026-05-07 09:26 | 49.14745 | -1.73043 | 34080 ft | 442 kts | 359° |
| 2026-05-07 09:26 | 49.20899 | -1.72974 | 34079 ft | 442 kts | 359° |
| 2026-05-07 09:27 | 49.27058 | -1.72911 | 34076 ft | 442 kts | 358° |
| 2026-05-07 09:28 | 49.36280 | -1.72826 | 34074 ft | 442 kts | 358° |
| 2026-05-07 09:28 | 49.42427 | -1.72765 | 34070 ft | 442 kts | 358° |
| 2026-05-07 09:29 | 49.48577 | -1.72691 | 34070 ft | 442 kts | 358° |
| 2026-05-07 09:29 | 49.54691 | -1.72611 | 34071 ft | 442 kts | 358° |
| 2026-05-07 09:30 | 49.60814 | -1.71762 | 34067 ft | 445 kts | 12° |
| 2026-05-07 09:30 | 49.66696 | -1.68726 | 34062 ft | 446 kts | 18° |
| 2026-05-07 09:31 | 49.72543 | -1.65486 | 33998 ft | 447 kts | 18° |
| 2026-05-07 09:31 | 49.74521 | -1.64392 | 33832 ft | 447 kts | 18° |
| 2026-05-07 09:31 | 49.77415 | -1.62792 | 33374 ft | 448 kts | 18° |
| 2026-05-07 09:31 | 49.80351 | -1.61166 | 32794 ft | 448 kts | 18° |
| 2026-05-07 09:32 | 49.83277 | -1.59541 | 32204 ft | 446 kts | 18° |
| 2026-05-07 09:32 | 49.86099 | -1.57971 | 31724 ft | 442 kts | 18° |
| 2026-05-07 09:32 | 49.88979 | -1.56367 | 31260 ft | 439 kts | 18° |
| 2026-05-07 09:32 | 49.91842 | -1.54768 | 30807 ft | 435 kts | 18° |
| 2026-05-07 09:33 | 49.94049 | -1.53530 | 30462 ft | 433 kts | 18° |
| 2026-05-07 09:33 | 49.96874 | -1.51946 | 29996 ft | 430 kts | 18° |
| 2026-05-07 09:33 | 49.99679 | -1.50378 | 29417 ft | 427 kts | 18° |
| 2026-05-07 09:33 | 50.02455 | -1.48885 | 28843 ft | 420 kts | 16° |
| 2026-05-07 09:34 | 50.05240 | -1.47495 | 28305 ft | 420 kts | 15° |
| 2026-05-07 09:34 | 50.08020 | -1.46172 | 27752 ft | 416 kts | 15° |
| 2026-05-07 09:34 | 50.10784 | -1.44878 | 27222 ft | 413 kts | 15° |
| 2026-05-07 09:34 | 50.13524 | -1.43589 | 26738 ft | 410 kts | 15° |
| 2026-05-07 09:35 | 50.16234 | -1.42293 | 26319 ft | 405 kts | 15° |
| 2026-05-07 09:35 | 50.18915 | -1.40990 | 25953 ft | 402 kts | 15° |
| 2026-05-07 09:35 | 50.21581 | -1.39683 | 25608 ft | 400 kts | 15° |
| 2026-05-07 09:35 | 50.24228 | -1.38377 | 25260 ft | 398 kts | 16° |
| 2026-05-07 09:36 | 50.26862 | -1.37075 | 24914 ft | 396 kts | 16° |
| 2026-05-07 09:36 | 50.29482 | -1.35780 | 24571 ft | 394 kts | 16° |
| 2026-05-07 09:36 | 50.32086 | -1.34493 | 24116 ft | 390 kts | 16° |
| 2026-05-07 09:36 | 50.34665 | -1.33218 | 23621 ft | 390 kts | 16° |
| 2026-05-07 09:37 | 50.37248 | -1.31940 | 23087 ft | 388 kts | 16° |
| 2026-05-07 09:37 | 50.39812 | -1.30670 | 22581 ft | 385 kts | 16° |
| 2026-05-07 09:37 | 50.42360 | -1.29407 | 22105 ft | 382 kts | 16° |
| 2026-05-07 09:37 | 50.44885 | -1.28153 | 21626 ft | 379 kts | 17° |
| 2026-05-07 09:38 | 50.47393 | -1.26903 | 21169 ft | 376 kts | 17° |
| 2026-05-07 09:38 | 50.49808 | -1.25385 | 20781 ft | 373 kts | 27° |
| 2026-05-07 09:38 | 50.51995 | -1.23216 | 20372 ft | 372 kts | 37° |
| 2026-05-07 09:38 | 50.53981 | -1.20626 | 19927 ft | 370 kts | 39° |
| 2026-05-07 09:39 | 50.55945 | -1.18034 | 19480 ft | 368 kts | 39° |
| 2026-05-07 09:39 | 50.57897 | -1.15456 | 19038 ft | 366 kts | 40° |
| 2026-05-07 09:39 | 50.59839 | -1.12890 | 18610 ft | 363 kts | 40° |
| 2026-05-07 09:39 | 50.61771 | -1.10341 | 18142 ft | 361 kts | 40° |
| 2026-05-07 09:40 | 50.63695 | -1.07802 | 17604 ft | 360 kts | 40° |
| 2026-05-07 09:40 | 50.65595 | -1.05237 | 17070 ft | 359 kts | 44° |
| 2026-05-07 09:40 | 50.67184 | -1.02230 | 16544 ft | 357 kts | 59° |
| 2026-05-07 09:40 | 50.68203 | -0.98690 | 16030 ft | 354 kts | 70° |
| 2026-05-07 09:41 | 50.69068 | -0.95068 | 15516 ft | 352 kts | 70° |
| 2026-05-07 09:41 | 50.69904 | -0.91512 | 15249 ft | 341 kts | 70° |
| 2026-05-07 09:41 | 50.70714 | -0.88043 | 15126 ft | 342 kts | 70° |
| 2026-05-07 09:41 | 50.71536 | -0.84516 | 14974 ft | 343 kts | 70° |
| 2026-05-07 09:42 | 50.72362 | -0.80958 | 14692 ft | 340 kts | 70° |
| 2026-05-07 09:42 | 50.73171 | -0.77462 | 14327 ft | 338 kts | 70° |
| 2026-05-07 09:42 | 50.73965 | -0.74036 | 13971 ft | 335 kts | 70° |
| 2026-05-07 09:42 | 50.74774 | -0.70542 | 13550 ft | 334 kts | 70° |
| 2026-05-07 09:43 | 50.75566 | -0.67105 | 13065 ft | 332 kts | 70° |
| 2026-05-07 09:43 | 50.76341 | -0.63726 | 12596 ft | 331 kts | 70° |
| 2026-05-07 09:43 | 50.77124 | -0.60311 | 12128 ft | 330 kts | 71° |
| 2026-05-07 09:43 | 50.77904 | -0.56909 | 11657 ft | 329 kts | 70° |
| 2026-05-07 09:44 | 50.78694 | -0.53524 | 11208 ft | 328 kts | 67° |
| 2026-05-07 09:44 | 50.79942 | -0.50546 | 10762 ft | 326 kts | 44° |
| 2026-05-07 09:44 | 50.81820 | -0.48597 | 10280 ft | 322 kts | 20° |
| 2026-05-07 09:44 | 50.83960 | -0.47972 | 9947 ft | 305 kts | 2° |
| 2026-05-07 09:45 | 50.86010 | -0.48310 | 9516 ft | 292 kts | 348° |
| 2026-05-07 09:45 | 50.87973 | -0.49007 | 8979 ft | 286 kts | 346° |
| 2026-05-07 09:45 | 50.89902 | -0.49728 | 8400 ft | 283 kts | 346° |
| 2026-05-07 09:45 | 50.91802 | -0.50429 | 7833 ft | 279 kts | 346° |
| 2026-05-07 09:46 | 50.93686 | -0.51108 | 7294 ft | 275 kts | 346° |
| 2026-05-07 09:46 | 50.95539 | -0.51769 | 6784 ft | 271 kts | 346° |
| 2026-05-07 09:46 | 50.97367 | -0.52416 | 6223 ft | 269 kts | 346° |
| 2026-05-07 09:46 | 50.99183 | -0.53056 | 5675 ft | 265 kts | 346° |
| 2026-05-07 09:47 | 51.00963 | -0.53676 | 5255 ft | 258 kts | 346° |
| 2026-05-07 09:47 | 51.02702 | -0.54288 | 4846 ft | 255 kts | 347° |
| 2026-05-07 09:47 | 51.04419 | -0.54898 | 4426 ft | 251 kts | 346° |
| 2026-05-07 09:47 | 51.06125 | -0.55487 | 4046 ft | 251 kts | 350° |
| 2026-05-07 09:48 | 51.07845 | -0.55299 | 3667 ft | 251 kts | 20° |
| 2026-05-07 09:48 | 51.09323 | -0.53826 | 3543 ft | 253 kts | 39° |
| 2026-05-07 09:48 | 51.10599 | -0.51936 | 3353 ft | 252 kts | 54° |
| 2026-05-07 09:48 | 51.11127 | -0.49374 | 3117 ft | 240 kts | 93° |
| 2026-05-07 09:49 | 51.10924 | -0.46860 | 3012 ft | 219 kts | 94° |
| 2026-05-07 09:49 | 51.11187 | -0.44601 | 2998 ft | 197 kts | 73° |
| 2026-05-07 09:49 | 51.11517 | -0.42603 | 2956 ft | 180 kts | 77° |
| 2026-05-07 09:49 | 51.11790 | -0.40718 | 2798 ft | 171 kts | 79° |
| 2026-05-07 09:50 | 51.12049 | -0.38888 | 2569 ft | 168 kts | 79° |
| 2026-05-07 09:50 | 51.12303 | -0.37084 | 2338 ft | 166 kts | 78° |
| 2026-05-07 09:50 | 51.12553 | -0.35299 | 2111 ft | 164 kts | 80° |
| 2026-05-07 09:50 | 51.12801 | -0.33524 | 1882 ft | 163 kts | 79° |
| 2026-05-07 09:51 | 51.13046 | -0.31761 | 1659 ft | 163 kts | 79° |
| 2026-05-07 09:51 | 51.13292 | -0.30001 | 1435 ft | 162 kts | 78° |
| 2026-05-07 09:51 | 51.13535 | -0.28251 | 1184 ft | 162 kts | 78° |
| 2026-05-07 09:51 | 51.13770 | -0.26530 | 932 ft | 159 kts | 79° |
| 2026-05-07 09:52 | 51.14007 | -0.24820 | 725 ft | 157 kts | 77° |
| 2026-05-07 09:52 | 51.14239 | -0.23128 | 516 ft | 157 kts | 78° |
| 2026-05-07 09:52 | 51.14476 | -0.21458 | 325 ft | 152 kts | 77° |
| 2026-05-07 09:52 | 51.14699 | -0.19883 | 214 ft | 134 kts | 78° |
| 2026-05-07 09:53 | 51.14860 | -0.18678 | 210 ft | 86 kts | 77° |
| 2026-05-07 09:53 | 51.14951 | -0.18059 | 207 ft | 35 kts | 75° |
| 2026-05-07 09:53 | 51.15021 | -0.17860 | 215 ft | 14 kts | 50° |
| 2026-05-07 09:53 | 51.15070 | -0.17772 | 208 ft | 5 kts | 40° |
| 2026-05-07 09:54 | 51.15113 | -0.17757 | 205 ft | 8 kts | 359° |
| 2026-05-07 09:54 | 51.15175 | -0.17764 | 205 ft | 10 kts | 354° |
| 2026-05-07 09:54 | 51.15242 | -0.17769 | 210 ft | 10 kts | 20° |
| 2026-05-07 09:54 | 51.15271 | -0.17655 | 204 ft | 13 kts | 78° |
| 2026-05-07 09:55 | 51.15291 | -0.17515 | 212 ft | 12 kts | 80° |
| 2026-05-07 09:55 | 51.15305 | -0.17379 | 213 ft | 12 kts | 84° |
| 2026-05-07 09:55 | 51.15315 | -0.17275 | 204 ft | 6 kts | 75° |
| 2026-05-07 09:55 | 51.15351 | -0.17243 | 211 ft | 8 kts | 353° |
| 2026-05-07 09:56 | 51.15414 | -0.17266 | 209 ft | 11 kts | 347° |
| 2026-05-07 09:56 | 51.15499 | -0.17296 | 209 ft | 14 kts | 348° |
| 2026-05-07 09:56 | 51.15569 | -0.17317 | 210 ft | 8 kts | 357° |
| 2026-05-07 09:56 | 51.15612 | -0.17252 | 206 ft | 11 kts | 75° |
| 2026-05-07 09:57 | 51.15630 | -0.17137 | 208 ft | 10 kts | 78° |
| 2026-05-07 09:57 | 51.15635 | -0.17099 | 209 ft | 1 kts | 79° |
| 2026-05-07 09:57 | 51.15639 | -0.17069 | 207 ft | 5 kts | 78° |
| 2026-05-07 09:57 | 51.15623 | -0.17020 | 211 ft | 7 kts | 159° |
| 2026-05-07 09:58 | 51.15579 | -0.17003 | 206 ft | 2 kts | 167° |
| 2026-05-07 09:58 | 51.15571 | -0.17000 | 204 ft | 0 kts | 167° |